Time;durP1;ratioP1;P1;durP2;ratioP2;P2;SDS_P1;SDS_P2;PMS_P1;PMS_P2;Temp;Humidity;BMP_temperature;BMP_pressure;BME280_temperature;BME280_humidity;BME280_pressure;Samples;Min_cycle;Max_cycle;Signal;HPM_P1;HPM_P2
2024/01/18 00:05:14;;;;;;;62.23;32.17;;;-0.50;99.90;;;;;;10370016;28;20291;-79
2024/01/18 00:10:35;;;;;;;61.83;29.03;;;-0.60;99.90;;;;;;10288842;28;20205;-78
2024/01/18 00:15:56;;;;;;;61.07;29.53;;;-0.50;99.90;;;;;;10309835;28;20207;-78
2024/01/18 00:21:19;;;;;;;62.97;30.83;;;-0.60;1.00;;;;;;10395633;28;20268;-79
2024/01/18 00:26:40;;;;;;;61.20;30.37;;;-0.60;1.00;;;;;;10308978;28;20233;-78
2024/01/18 00:32:01;;;;;;;62.27;29.90;;;-0.50;99.90;;;;;;10417655;28;20256;-78
2024/01/18 00:37:23;;;;;;;58.30;29.53;;;-0.50;1.00;;;;;;10413779;28;20274;-79
2024/01/18 00:42:44;;;;;;;56.57;27.73;;;-0.50;1.00;;;;;;10393377;28;20197;-79
2024/01/18 00:48:06;;;;;;;53.47;26.80;;;-0.40;1.00;;;;;;10409390;28;20272;-80
2024/01/18 00:53:27;;;;;;;63.70;28.47;;;-0.50;1.00;;;;;;10308812;28;20475;-81
2024/01/18 00:58:49;;;;;;;63.40;29.47;;;-0.50;1.00;;;;;;10408662;28;20199;-79
2024/01/18 01:04:10;;;;;;;53.63;27.50;;;-0.40;1.00;;;;;;10354551;28;20251;-80
2024/01/18 01:09:32;;;;;;;54.90;29.40;;;-0.50;1.00;;;;;;10283013;28;20231;-79
2024/01/18 01:14:53;;;;;;;52.27;26.20;;;-0.50;1.00;;;;;;10315299;28;20254;-79
2024/01/18 01:20:14;;;;;;;51.20;24.90;;;-0.50;1.00;;;;;;10416287;28;20531;-82
2024/01/18 01:25:39;;;;;;;52.80;28.10;;;-0.50;1.00;;;;;;10415843;28;20279;-79
2024/01/18 01:31:00;;;;;;;55.20;29.40;;;-0.50;1.00;;;;;;10436241;28;20395;-80
2024/01/18 01:36:21;;;;;;;60.80;29.37;;;-0.50;1.00;;;;;;10285823;28;20201;-79
2024/01/18 01:41:43;;;;;;;59.73;28.80;;;-0.60;99.90;;;;;;10286970;28;20209;-78
2024/01/18 01:47:04;;;;;;;50.37;26.97;;;-0.50;1.00;;;;;;10300825;28;20279;-78
2024/01/18 01:52:28;;;;;;;53.17;27.77;;;-0.50;1.00;;;;;;10286508;28;20411;-79
2024/01/18 01:57:49;;;;;;;53.27;28.50;;;-0.60;1.00;;;;;;10374053;28;20388;-78
2024/01/18 02:03:10;;;;;;;49.77;28.07;;;-0.60;21.20;;;;;;10277509;28;20208;-78
2024/01/18 02:08:32;;;;;;;58.80;27.87;;;-0.60;1.00;;;;;;10277111;28;20212;-78
2024/01/18 02:13:54;;;;;;;54.23;28.03;;;-0.50;99.90;;;;;;10294386;28;20380;-78
2024/01/18 02:19:15;;;;;;;57.00;29.10;;;-0.60;1.00;;;;;;10309248;28;20564;-78
2024/01/18 02:24:45;;;;;;;59.60;28.27;;;-0.50;1.00;;;;;;10399587;28;20484;-79
2024/01/18 02:30:09;;;;;;;55.30;28.00;;;-0.50;1.00;;;;;;10416183;28;20205;-78
2024/01/18 02:35:31;;;;;;;53.03;27.53;;;-0.60;1.00;;;;;;10345822;28;20447;-80
2024/01/18 02:40:52;;;;;;;49.03;28.27;;;-0.60;35.00;;;;;;10410149;28;20214;-78
2024/01/18 02:46:17;;;;;;;53.07;27.97;;;-0.60;1.00;;;;;;10344058;28;20226;-78
2024/01/18 02:51:38;;;;;;;53.67;26.53;;;-0.70;1.00;;;;;;10397557;28;20224;-78
2024/01/18 02:56:59;;;;;;;54.93;28.27;;;-0.70;1.00;;;;;;10310925;28;20266;-79
2024/01/18 03:02:22;;;;;;;54.13;27.63;;;-0.70;1.00;;;;;;10396534;28;20363;-78
2024/01/18 03:07:43;;;;;;;49.90;27.00;;;-0.70;1.00;;;;;;10310771;28;20542;-78
2024/01/18 03:13:04;;;;;;;51.23;27.70;;;-0.70;1.00;;;;;;10414758;28;20242;-78
2024/01/18 03:18:26;;;;;;;52.30;27.93;;;-0.70;1.00;;;;;;10274423;28;20244;-80
2024/01/18 03:23:47;;;;;;;52.50;26.50;;;-0.70;1.00;;;;;;10270570;28;20192;-78
2024/01/18 03:29:09;;;;;;;55.53;28.13;;;-0.60;1.00;;;;;;10272453;28;20230;-78
2024/01/18 03:34:30;;;;;;;60.97;30.23;;;-0.70;1.00;;;;;;10269871;28;20198;-78
2024/01/18 03:39:52;;;;;;;58.07;30.53;;;-0.80;1.00;;;;;;10355118;28;20207;-78
2024/01/18 03:45:13;;;;;;;56.97;29.37;;;-0.80;1.00;;;;;;10256345;29;20423;-79
2024/01/18 03:50:35;;;;;;;53.33;27.60;;;-0.90;1.00;;;;;;10294148;28;20203;-78
2024/01/18 03:55:56;;;;;;;58.90;29.03;;;-1.00;1.00;;;;;;10380299;28;20204;-80
2024/01/18 04:01:17;;;;;;;57.93;29.40;;;-1.10;1.00;;;;;;10310323;28;20242;-81
2024/01/18 04:06:38;;;;;;;56.30;30.67;;;-1.10;1.00;;;;;;10394913;28;20228;-78
2024/01/18 04:12:00;;;;;;;53.50;28.57;;;-1.20;1.00;;;;;;10309562;28;20207;-79
2024/01/18 04:17:21;;;;;;;56.90;29.10;;;-1.20;1.00;;;;;;10372278;28;20252;-80
2024/01/18 04:22:43;;;;;;;53.03;28.33;;;-1.20;1.00;;;;;;10395537;28;20212;-78
2024/01/18 04:28:04;;;;;;;59.03;30.03;;;-1.30;1.00;;;;;;10335739;28;20294;-81
2024/01/18 04:33:26;;;;;;;52.03;27.97;;;-1.20;1.00;;;;;;10513860;28;20277;-79
2024/01/18 04:38:47;;;;;;;51.17;27.50;;;-1.20;1.00;;;;;;10518227;28;20193;-81
2024/01/18 04:44:09;;;;;;;48.30;26.97;;;-1.20;99.90;;;;;;10503569;28;20448;-79
2024/01/18 04:49:30;;;;;;;49.40;28.20;;;-1.10;65.30;;;;;;10335537;28;20259;-79
2024/01/18 04:54:51;;;;;;;52.97;28.13;;;-1.00;52.80;;;;;;10353265;28;20195;-82
2024/01/18 05:00:13;;;;;;;54.50;29.30;;;-1.00;99.90;;;;;;10368160;28;20196;-82
2024/01/18 05:05:37;;;;;;;49.53;26.73;;;-0.90;1.00;;;;;;10367736;28;20229;-79
2024/01/18 05:10:58;;;;;;;43.83;24.90;;;-1.00;1.00;;;;;;10290286;28;20219;-80
2024/01/18 05:16:20;;;;;;;44.93;25.60;;;-0.90;1.00;;;;;;10306102;28;20427;-78
2024/01/18 05:21:41;;;;;;;47.33;25.73;;;-1.00;1.00;;;;;;10367658;28;20219;-80
2024/01/18 05:27:02;;;;;;;45.37;25.13;;;-1.10;1.00;;;;;;10306189;28;20224;-77
2024/01/18 05:32:24;;;;;;;43.47;24.17;;;-1.10;1.00;;;;;;10440381;28;20211;-79
2024/01/18 05:37:45;;;;;;;49.40;25.50;;;-1.10;1.00;;;;;;10531373;28;20357;-78
2024/01/18 05:43:07;;;;;;;42.93;24.23;;;-1.10;1.00;;;;;;10516960;28;20206;-79
2024/01/18 05:48:29;;;;;;;53.90;27.10;;;-1.10;99.90;;;;;;10375004;28;20236;-80
2024/01/18 05:53:50;;;;;;;52.10;28.43;;;-1.10;99.90;;;;;;10267108;28;20188;-78
2024/01/18 05:59:11;;;;;;;55.83;31.17;;;-1.10;99.90;;;;;;10343355;28;20202;-78
2024/01/18 06:04:33;;;;;;;47.33;25.93;;;-1.00;99.90;;;;;;10272614;28;20203;-79
2024/01/18 06:09:54;;;;;;;40.23;23.53;;;-1.00;99.90;;;;;;10287760;28;20262;-78
2024/01/18 06:15:15;;;;;;;42.63;24.53;;;-1.00;99.90;;;;;;10330430;28;20205;-80
2024/01/18 06:20:37;;;;;;;43.90;25.07;;;-1.00;1.00;;;;;;10398511;28;20240;-78
2024/01/18 06:25:59;;;;;;;40.33;22.57;;;-1.10;78.50;;;;;;10311706;28;20246;-79
2024/01/18 06:31:26;;;;;;;35.63;22.23;;;-1.20;99.90;;;;;;10383679;28;20198;-78
2024/01/18 06:36:51;;;;;;;38.57;22.00;;;-1.30;99.90;;;;;;10508312;28;20219;-79
2024/01/18 06:42:12;;;;;;;40.33;24.33;;;-1.40;99.90;;;;;;10522568;28;20209;-80
2024/01/18 06:47:35;;;;;;;36.83;22.63;;;-1.40;1.00;;;;;;10442780;28;20308;-78
2024/01/18 06:52:57;;;;;;;41.37;23.30;;;-1.40;99.90;;;;;;10271280;28;20238;-78
2024/01/18 06:58:19;;;;;;;38.33;23.50;;;-1.50;99.90;;;;;;10371876;28;20418;-81
2024/01/18 07:03:42;;;;;;;40.13;23.27;;;-1.50;1.00;;;;;;10289547;28;20198;-81
2024/01/18 07:09:06;;;;;;;45.73;24.30;;;-1.50;1.00;;;;;;10378896;28;20232;-79
2024/01/18 07:14:27;;;;;;;46.10;25.67;;;-1.40;1.00;;;;;;10341095;28;20200;-80
2024/01/18 07:19:49;;;;;;;64.07;31.03;;;-1.30;1.00;;;;;;10396573;28;20512;-80
2024/01/18 07:25:12;;;;;;;126.10;53.70;;;-1.40;1.00;;;;;;10341980;28;20203;-80
2024/01/18 07:30:33;;;;;;;157.73;62.70;;;-1.60;99.90;;;;;;10361898;28;20191;-81
2024/01/18 07:35:54;;;;;;;145.47;65.27;;;-1.80;99.90;;;;;;10520215;28;20265;-80
2024/01/18 07:41:17;;;;;;;130.10;63.83;;;-1.90;95.00;;;;;;10505630;28;20196;-79
2024/01/18 07:46:38;;;;;;;128.60;62.73;;;-1.80;99.90;;;;;;10301682;28;20229;-78
2024/01/18 07:52:00;;;;;;;143.10;68.47;;;-1.80;99.90;;;;;;10310074;28;20270;-78
2024/01/18 07:57:21;;;;;;;176.70;77.17;;;-1.90;1.00;;;;;;10309794;28;20547;-81
2024/01/18 08:02:42;;;;;;;331.60;124.30;;;-1.90;1.00;;;;;;10366356;28;20207;-78
2024/01/18 08:08:04;;;;;;;261.17;112.57;;;-1.90;1.00;;;;;;10309108;28;20223;-80
2024/01/18 08:13:25;;;;;;;212.67;110.93;;;-2.00;1.00;;;;;;10373665;28;20488;-78
2024/01/18 08:18:46;;;;;;;207.17;104.37;;;-1.80;7.80;;;;;;10373698;28;20314;-79
2024/01/18 08:24:11;;;;;;;541.93;179.10;;;-1.70;1.00;;;;;;10362786;28;20215;-79
2024/01/18 08:29:34;;;;;;;425.37;152.27;;;-1.60;1.00;;;;;;10336631;28;20275;-79
2024/01/18 08:34:55;;;;;;;316.37;133.00;;;-1.40;1.00;;;;;;10434492;28;20360;-79
2024/01/18 08:40:17;;;;;;;350.70;138.47;;;-1.30;1.00;;;;;;10403218;28;20213;-78
2024/01/18 08:45:41;;;;;;;322.57;118.73;;;-0.90;1.00;;;;;;10301932;28;20208;-79
2024/01/18 08:51:03;;;;;;;142.00;57.37;;;-0.60;1.00;;;;;;10462520;28;20202;-79
2024/01/18 08:56:25;;;;;;;92.03;36.10;;;0.10;1.00;;;;;;10328700;28;20258;-86
2024/01/18 09:01:48;;;;;;;53.37;24.30;;;1.20;99.90;;;;;;10287963;28;20521;-81
2024/01/18 09:07:09;;;;;;;39.17;20.93;;;1.30;99.90;;;;;;10302629;28;20268;-81
2024/01/18 09:12:31;;;;;;;33.37;18.27;;;1.30;94.40;;;;;;10312571;28;20212;-78
2024/01/18 09:17:52;;;;;;;30.27;17.33;;;1.10;99.90;;;;;;10295786;28;20246;-83
2024/01/18 09:23:14;;;;;;;34.40;18.97;;;0.90;99.90;;;;;;10314394;28;20252;-80
2024/01/18 09:28:35;;;;;;;35.97;18.57;;;1.00;99.90;;;;;;10374563;28;20264;-84
2024/01/18 09:33:57;;;;;;;35.13;20.03;;;1.00;99.90;;;;;;10346425;28;20275;-89
2024/01/18 09:39:18;;;;;;;33.17;20.70;;;1.00;99.90;;;;;;10307208;28;20213;-78
2024/01/18 09:44:47;;;;;;;34.43;18.67;;;1.00;99.90;;;;;;10308681;28;20195;-87
2024/01/18 09:50:09;;;;;;;34.83;20.37;;;1.10;99.90;;;;;;10287199;28;20227;-77
2024/01/18 09:55:31;;;;;;;37.43;20.57;;;1.20;99.90;;;;;;10284988;28;20248;-83
2024/01/18 10:00:57;;;;;;;37.67;20.30;;;1.10;99.90;;;;;;10268070;28;20472;-84
2024/01/18 10:06:19;;;;;;;41.97;21.77;;;1.20;99.90;;;;;;10270006;28;20231;-78
2024/01/18 10:11:41;;;;;;;33.50;18.03;;;1.20;99.90;;;;;;10289337;28;20206;-80
2024/01/18 10:17:02;;;;;;;31.47;16.53;;;1.50;99.90;;;;;;10335754;28;20243;-78
2024/01/18 10:22:24;;;;;;;30.40;15.53;;;1.90;99.90;;;;;;10291048;28;20198;-78
2024/01/18 10:27:46;;;;;;;29.27;15.30;;;2.10;99.90;;;;;;10373436;28;20253;-80
2024/01/18 10:33:09;;;;;;;44.10;21.90;;;2.10;99.90;;;;;;10467185;28;20416;-81
2024/01/18 10:38:30;;;;;;;31.37;16.57;;;2.10;99.90;;;;;;10388466;28;20218;-78
2024/01/18 10:43:53;;;;;;;27.37;15.47;;;2.30;88.30;;;;;;10305208;28;20501;-77
2024/01/18 10:49:14;;;;;;;23.73;10.63;;;2.30;7.60;;;;;;10304567;28;20227;-78
2024/01/18 10:54:37;;;;;;;21.07;8.70;;;2.30;1.00;;;;;;10304803;28;20209;-78
2024/01/18 10:59:59;;;;;;;16.13;8.00;;;2.20;1.00;;;;;;10305834;28;20264;-81
2024/01/18 11:05:23;;;;;;;14.67;7.77;;;1.90;1.00;;;;;;10290462;28;20209;-78
2024/01/18 11:10:48;;;;;;;14.17;7.57;;;1.80;1.00;;;;;;10408859;28;20250;-79
2024/01/18 11:16:10;;;;;;;18.90;8.00;;;1.70;1.00;;;;;;10291431;28;20452;-80
2024/01/18 11:21:42;;;;;;;10.80;5.90;;;1.70;1.00;;;;;;10389007;28;20266;-81
2024/01/18 11:27:23;;;;;;;13.23;6.10;;;2.80;1.00;;;;;;10303310;28;20236;-82
2024/01/18 11:32:44;;;;;;;14.30;6.00;;;5.20;1.00;;;;;;10432442;28;20469;-84
2024/01/18 11:38:24;;;;;;;8.77;4.73;;;7.00;1.00;;;;;;10270880;28;20205;-80
2024/01/18 11:44:01;;;;;;;11.80;5.73;;;8.00;1.00;;;;;;10279087;28;20189;-81
2024/01/18 11:49:22;;;;;;;9.70;4.40;;;8.50;1.00;;;;;;10304492;28;20236;-84
2024/01/18 11:54:47;;;;;;;7.65;4.43;;;8.60;1.00;;;;;;10290508;28;20347;-80
2024/01/18 12:00:10;;;;;;;10.45;4.88;;;9.00;1.00;;;;;;10303568;28;20257;-80
2024/01/18 12:05:32;;;;;;;7.40;4.68;;;9.50;1.00;;;;;;10292564;28;20218;-76
2024/01/18 12:10:54;;;;;;;8.93;5.45;;;10.50;1.00;;;;;;10302491;28;20232;-82
2024/01/18 12:16:19;;;;;;;8.45;4.57;;;;;;;;;;10302460;28;20218;-79
2024/01/18 12:21:41;;;;;;;9.25;4.00;;;11.50;1.00;;;;;;10303308;28;20236;-87
2024/01/18 12:27:04;;;;;;;8.60;3.80;;;10.40;1.00;;;;;;10327624;28;20246;-81
2024/01/18 12:32:28;;;;;;;8.53;4.93;;;8.70;1.00;;;;;;10417783;28;20265;-81
2024/01/18 12:37:50;;;;;;;8.87;3.73;;;7.10;1.00;;;;;;10290926;28;20250;-83
2024/01/18 12:43:11;;;;;;;6.47;3.03;;;6.00;1.00;;;;;;10261653;29;20223;-80
2024/01/18 12:48:33;;;;;;;9.60;3.93;;;5.30;1.00;;;;;;10294028;28;20316;-79
2024/01/18 12:53:58;;;;;;;9.83;3.87;;;4.90;1.00;;;;;;10301259;28;20271;-79
2024/01/18 12:59:19;;;;;;;28.77;12.63;;;4.60;1.00;;;;;;10287587;28;20229;-78
2024/01/18 13:04:41;;;;;;;11.93;5.43;;;4.40;1.00;;;;;;10305150;28;20197;-78
2024/01/18 13:10:04;;;;;;;23.73;10.43;;;4.20;1.00;;;;;;10302861;28;20244;-82
2024/01/18 13:15:26;;;;;;;14.97;4.83;;;4.10;1.00;;;;;;10377535;28;20214;-77
2024/01/18 13:20:48;;;;;;;8.43;3.90;;;4.20;1.00;;;;;;10378267;28;20232;-80
2024/01/18 13:26:09;;;;;;;14.67;5.90;;;4.10;1.00;;;;;;10379876;28;20215;-77
2024/01/18 13:31:32;;;;;;;7.17;3.87;;;4.00;1.00;;;;;;10416306;28;20211;-76
2024/01/18 13:36:56;;;;;;;7.03;2.90;;;3.80;1.00;;;;;;10503030;28;20222;-75
2024/01/18 13:42:20;;;;;;;9.00;3.33;;;3.60;1.00;;;;;;10352215;28;20220;-75
2024/01/18 13:47:41;;;;;;;11.90;4.20;;;3.30;1.00;;;;;;10266877;28;20238;-76
2024/01/18 13:53:04;;;;;;;7.83;4.00;;;3.10;1.00;;;;;;10305626;28;20199;-77
2024/01/18 13:58:25;;;;;;;7.43;4.30;;;3.10;1.00;;;;;;10304809;28;20439;-78
2024/01/18 14:03:47;;;;;;;8.47;4.23;;;3.00;1.00;;;;;;10292343;28;20398;-76
2024/01/18 14:09:10;;;;;;;11.50;5.13;;;2.70;1.00;;;;;;10347282;28;20224;-77
2024/01/18 14:14:34;;;;;;;13.20;5.50;;;2.60;1.00;;;;;;10320249;28;20213;-81
2024/01/18 14:19:57;;;;;;;10.80;4.60;;;2.50;1.00;;;;;;10388057;28;20244;-78
2024/01/18 14:25:19;;;;;;;14.20;7.10;;;2.40;1.00;;;;;;10307366;28;20214;-79
2024/01/18 14:30:41;;;;;;;15.13;7.07;;;2.20;1.00;;;;;;10450606;28;20230;-81
2024/01/18 14:36:02;;;;;;;19.40;8.53;;;2.10;1.00;;;;;;10407542;28;20387;-77
2024/01/18 14:41:27;;;;;;;15.33;8.13;;;2.00;1.00;;;;;;10316538;28;20209;-79
2024/01/18 14:46:48;;;;;;;12.97;6.07;;;1.80;1.00;;;;;;10298846;28;20224;-78
2024/01/18 14:52:10;;;;;;;16.07;5.53;;;1.60;32.30;;;;;;10323819;28;20400;-75
2024/01/18 14:57:32;;;;;;;12.83;6.17;;;1.40;99.90;;;;;;10318121;28;20389;-75
2024/01/18 15:02:54;;;;;;;11.83;6.33;;;1.40;99.90;;;;;;10311040;28;20243;-78
2024/01/18 15:08:15;;;;;;;11.90;5.00;;;1.40;1.00;;;;;;10318405;28;20304;-75
2024/01/18 15:13:36;;;;;;;15.47;5.83;;;1.30;99.90;;;;;;10416352;28;20204;-77
2024/01/18 15:18:58;;;;;;;10.50;5.13;;;1.20;99.90;;;;;;10295923;28;20319;-83
2024/01/18 15:24:20;;;;;;;15.30;6.63;;;1.20;99.90;;;;;;10328739;28;20217;-76
2024/01/18 15:29:42;;;;;;;13.50;6.93;;;1.00;1.00;;;;;;10318736;28;20230;-80
2024/01/18 15:35:04;;;;;;;10.03;5.83;;;1.00;99.90;;;;;;10319895;28;20212;-76
2024/01/18 15:40:25;;;;;;;12.93;6.20;;;0.90;99.90;;;;;;10318937;28;20199;-76
2024/01/18 15:45:46;;;;;;;12.40;6.00;;;0.80;99.90;;;;;;10318681;28;20377;-79
2024/01/18 15:51:12;;;;;;;8.97;5.40;;;0.80;99.90;;;;;;10328501;28;20247;-77
2024/01/18 15:56:33;;;;;;;13.03;6.30;;;0.60;1.00;;;;;;10323802;28;20193;-76
2024/01/18 16:01:57;;;;;;;22.80;10.93;;;0.50;1.00;;;;;;10321111;28;20504;-79
2024/01/18 16:07:19;;;;;;;20.33;10.47;;;0.50;1.00;;;;;;10377962;28;20549;-77
2024/01/18 16:12:41;;;;;;;19.87;9.93;;;0.40;1.00;;;;;;10308727;28;20238;-77
2024/01/18 16:18:02;;;;;;;19.03;11.00;;;0.30;1.00;;;;;;10306716;28;20551;-77
2024/01/18 16:23:28;;;;;;;23.30;11.57;;;0.20;1.00;;;;;;10305991;28;20216;-75
2024/01/18 16:28:51;;;;;;;20.47;9.83;;;0.20;1.00;;;;;;10405819;28;20238;-78
2024/01/18 16:34:13;;;;;;;19.53;9.07;;;0.20;1.00;;;;;;10370202;28;20272;-76
2024/01/18 16:39:34;;;;;;;13.43;7.20;;;0.20;1.00;;;;;;10338122;28;20209;-80
2024/01/18 16:44:55;;;;;;;17.40;7.33;;;0.30;1.00;;;;;;10409702;28;20209;-75
2024/01/18 16:50:17;;;;;;;15.83;6.00;;;0.20;1.00;;;;;;10308695;28;20228;-76
2024/01/18 16:55:38;;;;;;;16.07;5.73;;;0.20;1.00;;;;;;10308405;28;20486;-85
2024/01/18 17:01:03;;;;;;;24.30;8.47;;;0.30;1.00;;;;;;10308930;28;20276;-79
2024/01/18 17:06:25;;;;;;;17.00;7.80;;;0.30;1.00;;;;;;10308926;28;20194;-77
2024/01/18 17:11:47;;;;;;;21.93;8.63;;;0.10;1.00;;;;;;10340019;28;20250;-78
2024/01/18 17:17:09;;;;;;;17.23;7.10;;;0.00;1.00;;;;;;10383019;28;20260;-78
2024/01/18 17:22:32;;;;;;;18.17;7.23;;;-0.10;1.00;;;;;;10351040;28;20281;-77
2024/01/18 17:27:55;;;;;;;12.70;5.70;;;-0.20;1.00;;;;;;10387380;28;20232;-76
2024/01/18 17:33:16;;;;;;;17.00;6.80;;;-0.20;1.00;;;;;;10397329;28;20209;-84
2024/01/18 17:38:37;;;;;;;15.13;5.83;;;-0.10;1.00;;;;;;10390482;28;20239;-75
2024/01/18 17:43:59;;;;;;;14.33;6.50;;;0.00;1.00;;;;;;10518015;28;20294;-85
2024/01/18 17:49:21;;;;;;;21.67;8.73;;;0.00;1.00;;;;;;10394712;28;20225;-75
2024/01/18 17:54:42;;;;;;;9.80;5.03;;;0.00;1.00;;;;;;10300079;28;20276;-85
2024/01/18 18:00:05;;;;;;;11.37;5.50;;;-0.10;1.00;;;;;;10304226;28;20486;-76
2024/01/18 18:05:31;;;;;;;15.40;6.97;;;-0.10;1.00;;;;;;10387763;28;20195;-75
2024/01/18 18:10:52;;;;;;;14.00;6.53;;;-0.10;1.00;;;;;;10406718;28;20469;-82
2024/01/18 18:16:15;;;;;;;17.90;8.37;;;-0.10;1.00;;;;;;10326616;28;20209;-81
2024/01/18 18:21:36;;;;;;;11.97;5.47;;;-0.10;1.00;;;;;;10413047;28;20201;-83
2024/01/18 18:26:57;;;;;;;9.93;4.53;;;0.00;1.00;;;;;;10325902;28;20442;-76
2024/01/18 18:32:18;;;;;;;14.60;6.00;;;0.00;1.00;;;;;;10299341;28;20491;-75
2024/01/18 18:37:41;;;;;;;11.87;5.43;;;-0.10;1.00;;;;;;10373708;28;20285;-75
2024/01/18 18:43:04;;;;;;;10.33;4.97;;;0.00;1.00;;;;;;10523829;28;20191;-83
2024/01/18 18:48:25;;;;;;;11.47;5.97;;;-0.10;1.00;;;;;;10522999;28;20291;-84
2024/01/18 18:53:46;;;;;;;11.50;5.87;;;-0.10;1.00;;;;;;10523268;28;20256;-84
2024/01/18 18:59:10;;;;;;;10.90;5.63;;;-0.10;1.00;;;;;;10495571;28;20189;-76
2024/01/18 19:04:32;;;;;;;12.57;5.83;;;-0.10;1.00;;;;;;10299860;28;20224;-84
2024/01/18 19:09:53;;;;;;;14.00;6.60;;;-0.10;1.00;;;;;;10311695;28;20229;-76
2024/01/18 19:15:14;;;;;;;13.57;6.47;;;-0.10;99.90;;;;;;10392906;28;20200;-76
2024/01/18 19:20:37;;;;;;;17.90;8.30;;;-0.10;99.90;;;;;;10364875;28;20266;-84
2024/01/18 19:25:59;;;;;;;20.10;8.53;;;0.00;1.00;;;;;;10375945;28;20198;-82
2024/01/18 19:31:21;;;;;;;13.97;8.13;;;0.10;1.00;;;;;;10309508;28;20260;-85
2024/01/18 19:36:42;;;;;;;18.67;7.93;;;0.10;1.00;;;;;;10271848;28;20412;-80
2024/01/18 19:42:04;;;;;;;14.27;7.93;;;0.10;1.00;;;;;;10530464;28;20228;-78
2024/01/18 19:47:26;;;;;;;17.33;7.73;;;0.00;1.00;;;;;;10520227;28;20196;-78
2024/01/18 19:52:47;;;;;;;15.63;7.37;;;0.00;51.30;;;;;;10520392;28;20239;-78
2024/01/18 19:58:09;;;;;;;13.47;7.47;;;-0.10;1.00;;;;;;10520200;28;20196;-76
2024/01/18 20:03:30;;;;;;;14.47;8.03;;;-0.10;71.50;;;;;;10283054;28;20225;-74
2024/01/18 20:08:52;;;;;;;15.50;8.67;;;-0.10;99.90;;;;;;10376475;28;20278;-75
2024/01/18 20:14:13;;;;;;;16.53;8.13;;;0.10;99.90;;;;;;10308744;28;20459;-75
2024/01/18 20:19:34;;;;;;;13.37;7.90;;;0.20;91.50;;;;;;10308851;28;20258;-75
2024/01/18 20:24:55;;;;;;;14.63;7.77;;;0.10;99.90;;;;;;10379310;28;20274;-76
2024/01/18 20:30:17;;;;;;;16.83;9.63;;;0.20;86.60;;;;;;10307779;28;20233;-74
2024/01/18 20:35:39;;;;;;;14.90;7.60;;;0.20;32.90;;;;;;10354096;28;20271;-77
2024/01/18 20:41:01;;;;;;;18.00;8.30;;;0.20;99.90;;;;;;10505064;28;20202;-75
2024/01/18 20:46:22;;;;;;;14.30;7.30;;;0.10;99.90;;;;;;10373524;28;20246;-77
2024/01/18 20:51:45;;;;;;;14.20;7.10;;;0.10;99.90;;;;;;10307948;28;20233;-76
2024/01/18 20:57:07;;;;;;;14.93;7.00;;;0.00;99.90;;;;;;10308722;28;20276;-76
2024/01/18 21:02:28;;;;;;;9.53;6.53;;;0.10;99.90;;;;;;10307677;28;20208;-75
2024/01/18 21:07:49;;;;;;;10.47;5.67;;;0.00;99.90;;;;;;10308672;28;20450;-75
2024/01/18 21:13:10;;;;;;;15.43;6.43;;;0.00;99.90;;;;;;10268388;29;20221;-77
2024/01/18 21:18:32;;;;;;;13.23;7.10;;;0.00;1.00;;;;;;10306186;28;20257;-75
2024/01/18 21:23:54;;;;;;;19.37;8.23;;;0.00;99.90;;;;;;10378558;28;20197;-76
2024/01/18 21:29:15;;;;;;;14.37;7.20;;;0.10;99.90;;;;;;10314950;28;20411;-75
2024/01/18 21:34:36;;;;;;;15.80;5.83;;;0.00;99.90;;;;;;10286999;28;20257;-75
2024/01/18 21:39:58;;;;;;;6.53;4.13;;;-0.10;99.90;;;;;;10491967;28;20194;-76
2024/01/18 21:45:19;;;;;;;12.90;6.00;;;-0.20;26.20;;;;;;10427509;28;20281;-76
2024/01/18 21:50:40;;;;;;;10.53;5.53;;;-0.30;99.90;;;;;;10398957;28;20272;-75
2024/01/18 21:56:02;;;;;;;11.63;6.30;;;-0.40;99.90;;;;;;10415400;28;20219;-75
2024/01/18 22:01:23;;;;;;;11.40;6.93;;;-0.50;99.90;;;;;;10415309;28;20288;-75
2024/01/18 22:06:46;;;;;;;17.43;7.17;;;-0.50;99.90;;;;;;10399825;28;20266;-75
2024/01/18 22:12:08;;;;;;;14.63;6.83;;;-0.50;99.90;;;;;;10414282;28;20228;-76
2024/01/18 22:17:29;;;;;;;17.50;7.83;;;-0.60;1.00;;;;;;10339774;28;20289;-75
2024/01/18 22:22:50;;;;;;;19.50;7.33;;;-0.60;99.90;;;;;;10313171;28;20194;-76
2024/01/18 22:28:12;;;;;;;16.37;7.53;;;-0.70;99.90;;;;;;10384081;28;20445;-76
2024/01/18 22:33:33;;;;;;;18.73;7.23;;;-0.70;99.90;;;;;;10313287;28;20191;-79
2024/01/18 22:38:57;;;;;;;12.00;6.63;;;-0.80;1.00;;;;;;10366012;28;20201;-77
2024/01/18 22:44:18;;;;;;;11.13;6.10;;;-0.90;1.00;;;;;;10494966;28;20204;-84
2024/01/18 22:49:39;;;;;;;12.90;6.67;;;-0.90;99.90;;;;;;10407340;28;20227;-83
2024/01/18 22:55:00;;;;;;;14.30;6.07;;;-1.00;99.90;;;;;;10272852;28;20190;-81
2024/01/18 23:00:24;;;;;;;9.70;5.40;;;-1.00;99.90;;;;;;10272619;28;20193;-78
2024/01/18 23:05:46;;;;;;;12.70;6.07;;;-1.20;99.90;;;;;;10272943;29;20507;-79
2024/01/18 23:11:08;;;;;;;13.17;6.30;;;-1.20;99.90;;;;;;10380214;28;20521;-76
2024/01/18 23:16:29;;;;;;;12.93;6.17;;;-1.20;99.90;;;;;;10327482;28;20200;-82
2024/01/18 23:21:50;;;;;;;10.57;5.83;;;-1.20;99.90;;;;;;10311930;28;20196;-83
2024/01/18 23:27:11;;;;;;;8.23;5.30;;;-1.30;1.00;;;;;;10312335;28;20278;-84
2024/01/18 23:32:33;;;;;;;9.90;5.80;;;-1.30;1.00;;;;;;10368487;28;20236;-80
2024/01/18 23:37:54;;;;;;;13.27;6.30;;;-1.30;1.00;;;;;;10321517;28;20201;-83
2024/01/18 23:43:15;;;;;;;13.90;6.77;;;-1.30;99.90;;;;;;10522312;28;20356;-82
2024/01/18 23:48:36;;;;;;;14.10;6.63;;;-1.30;99.90;;;;;;10384863;28;20219;-85
2024/01/18 23:53:57;;;;;;;18.83;6.73;;;-1.40;99.90;;;;;;10311417;28;20218;-85
2024/01/18 23:59:18;;;;;;;11.93;6.30;;;-1.30;99.90;;;;;;10411831;28;20194;-77
